Time;durP1;ratioP1;P1;durP2;ratioP2;P2;SDS_P1;SDS_P2;PMS_P1;PMS_P2;Temp;Humidity;BMP_temperature;BMP_pressure;BME280_temperature;BME280_humidity;BME280_pressure;Samples;Min_cycle;Max_cycle;Signal;HPM_P1;HPM_P2
2022/07/09 00:01:00;;;;;;;2.05;1.67;;;20.70;60.30;;;;;;5060448;28;20127;-76
2022/07/09 00:03:27;;;;;;;3.30;2.10;;;20.70;60.30;;;;;;5070372;28;20083;-75
2022/07/09 00:05:54;;;;;;;3.10;1.98;;;20.70;60.30;;;;;;5061027;28;20048;-74
2022/07/09 00:08:21;;;;;;;3.90;1.80;;;20.70;60.30;;;;;;5049729;28;20049;-75
2022/07/09 00:10:47;;;;;;;3.15;1.90;;;20.80;63.20;;;;;;5050854;28;20084;-75
2022/07/09 00:13:14;;;;;;;2.97;1.67;;;20.60;62.50;;;;;;5066463;28;20601;-74
2022/07/09 00:15:41;;;;;;;4.10;1.90;;;20.70;60.30;;;;;;5049829;28;20059;-75
2022/07/09 00:18:09;;;;;;;3.00;1.80;;;20.60;60.20;;;;;;5050971;28;20622;-75
2022/07/09 00:20:35;;;;;;;2.28;1.65;;;20.60;60.20;;;;;;5049898;28;20055;-76
2022/07/09 00:23:02;;;;;;;2.05;1.60;;;20.60;60.20;;;;;;5056392;28;20054;-76
2022/07/09 00:25:29;;;;;;;3.42;1.98;;;20.60;60.20;;;;;;5051263;28;20131;-75
2022/07/09 00:27:55;;;;;;;2.92;1.67;;;20.60;60.20;;;;;;5050546;28;20049;-75
2022/07/09 00:30:22;;;;;;;2.75;1.67;;;19.40;62.40;;;;;;5063301;28;20056;-75
2022/07/09 00:32:49;;;;;;;2.78;1.80;;;20.60;60.20;;;;;;5069490;28;20139;-75
2022/07/09 00:35:17;;;;;;;2.30;1.58;;;20.60;60.20;;;;;;5067430;28;20058;-75
2022/07/09 00:37:44;;;;;;;3.35;1.92;;;21.30;62.90;;;;;;5063864;28;20072;-75
2022/07/09 00:40:11;;;;;;;2.70;1.90;;;20.50;62.70;;;;;;5049501;28;20542;-75
2022/07/09 00:42:38;;;;;;;2.85;2.00;;;20.60;60.20;;;;;;5049133;28;20622;-75
2022/07/09 00:45:05;;;;;;;2.00;1.60;;;20.60;63.10;;;;;;5049058;28;20053;-75
2022/07/09 00:47:32;;;;;;;2.58;1.70;;;19.50;62.50;;;;;;5049039;28;20132;-75
2022/07/09 00:49:59;;;;;;;3.33;1.90;;;20.60;63.00;;;;;;5053530;28;20045;-75
2022/07/09 00:52:27;;;;;;;2.10;1.75;;;20.60;60.20;;;;;;5058183;28;20076;-75
2022/07/09 00:54:53;;;;;;;3.25;1.90;;;20.60;62.90;;;;;;5069585;28;20082;-75
2022/07/09 00:57:22;;;;;;;2.75;1.85;;;20.60;60.30;;;;;;5070923;28;20128;-75
2022/07/09 00:59:48;;;;;;;2.55;1.92;;;20.60;60.20;;;;;;5052566;28;20055;-76
2022/07/09 01:02:15;;;;;;;2.40;1.65;;;20.50;62.70;;;;;;5064061;28;20056;-75
2022/07/09 01:04:42;;;;;;;2.80;1.80;;;20.50;60.20;;;;;;5069106;28;20076;-75
2022/07/09 01:07:08;;;;;;;3.97;1.80;;;20.50;60.10;;;;;;5067995;28;20064;-75
2022/07/09 01:09:36;;;;;;;3.10;1.85;;;20.50;60.20;;;;;;5068170;28;20048;-74
2022/07/09 01:12:04;;;;;;;2.80;1.70;;;20.50;62.40;;;;;;5061503;28;20082;-75
2022/07/09 01:14:30;;;;;;;3.20;1.50;;;20.60;62.90;;;;;;5068591;28;20140;-76
2022/07/09 01:16:58;;;;;;;2.88;1.70;;;20.50;60.20;;;;;;5050221;28;20157;-76
2022/07/09 01:19:25;;;;;;;2.63;1.60;;;20.40;61.30;;;;;;5066722;28;20041;-75
2022/07/09 01:21:53;;;;;;;2.17;1.58;;;20.60;63.30;;;;;;5053576;28;20140;-75
2022/07/09 01:24:20;;;;;;;2.47;1.70;;;20.50;63.20;;;;;;5061149;28;20057;-75
2022/07/09 01:26:46;;;;;;;2.33;1.80;;;20.50;60.20;;;;;;5048580;28;20490;-75
2022/07/09 01:29:13;;;;;;;2.38;1.70;;;20.50;60.20;;;;;;5048315;28;20091;-75
2022/07/09 01:31:40;;;;;;;2.65;1.80;;;20.60;62.50;;;;;;5050029;28;20083;-75
2022/07/09 01:34:06;;;;;;;2.80;1.90;;;20.50;60.20;;;;;;5050369;28;20143;-75
2022/07/09 01:36:33;;;;;;;3.20;1.70;;;20.40;62.80;;;;;;5067861;28;20049;-74
2022/07/09 01:39:01;;;;;;;3.60;2.03;;;20.40;62.70;;;;;;5067476;28;20739;-75
2022/07/09 01:41:28;;;;;;;3.20;1.70;;;20.40;62.40;;;;;;5069177;28;20136;-76
2022/07/09 01:43:55;;;;;;;2.83;1.70;;;20.60;60.40;;;;;;5049638;28;20596;-75
2022/07/09 01:46:21;;;;;;;2.42;1.80;;;20.50;60.40;;;;;;5049342;28;20088;-76
2022/07/09 01:48:48;;;;;;;2.60;1.88;;;20.40;60.30;;;;;;5056458;28;20131;-76
2022/07/09 01:51:15;;;;;;;2.00;1.50;;;20.50;60.30;;;;;;5055505;28;20061;-75
2022/07/09 01:53:42;;;;;;;3.22;1.70;;;20.50;62.90;;;;;;5049387;28;20536;-76
2022/07/09 01:56:11;;;;;;;2.90;1.70;;;20.40;60.30;;;;;;5048944;28;20059;-76
2022/07/09 01:58:38;;;;;;;2.40;1.70;;;20.40;60.30;;;;;;5049822;28;20063;-75
2022/07/09 02:01:05;;;;;;;2.50;1.70;;;20.40;62.90;;;;;;5055091;28;20098;-76
2022/07/09 02:03:32;;;;;;;2.05;1.50;;;20.40;60.30;;;;;;5063521;28;20526;-76
2022/07/09 02:05:58;;;;;;;2.35;1.60;;;20.40;60.30;;;;;;5068697;28;20143;-75
2022/07/09 02:08:26;;;;;;;2.58;1.80;;;20.40;60.30;;;;;;5069494;28;20045;-76
2022/07/09 02:10:54;;;;;;;3.42;1.70;;;20.40;60.30;;;;;;5052370;28;20052;-75
2022/07/09 02:13:22;;;;;;;2.33;1.58;;;20.30;62.50;;;;;;5067263;28;20048;-76
2022/07/09 02:15:49;;;;;;;2.33;1.70;;;20.50;62.50;;;;;;5067769;28;20048;-75
2022/07/09 02:18:16;;;;;;;2.20;1.60;;;20.40;62.70;;;;;;5052647;28;20132;-75
2022/07/09 02:20:42;;;;;;;2.42;1.63;;;20.40;60.40;;;;;;5060624;28;20644;-75
2022/07/09 02:23:09;;;;;;;3.17;1.70;;;20.40;63.10;;;;;;5048799;28;20084;-75
2022/07/09 02:25:36;;;;;;;2.35;1.50;;;20.70;63.20;;;;;;5056427;28;20091;-75
2022/07/09 02:28:03;;;;;;;2.67;1.63;;;20.40;60.40;;;;;;5051554;28;20052;-75
2022/07/09 02:30:31;;;;;;;3.38;1.60;;;20.40;60.40;;;;;;5069045;28;20048;-75
2022/07/09 02:32:57;;;;;;;2.55;1.60;;;20.60;62.60;;;;;;5069523;28;20131;-74
2022/07/09 02:35:24;;;;;;;3.05;1.80;;;20.30;60.40;;;;;;5068255;28;20059;-75
2022/07/09 02:37:51;;;;;;;1.90;1.40;;;20.50;60.50;;;;;;5068582;28;20109;-75
2022/07/09 02:40:17;;;;;;;2.20;1.65;;;20.40;60.40;;;;;;5068183;28;20050;-74
2022/07/09 02:42:44;;;;;;;2.83;1.50;;;19.30;62.90;;;;;;5050332;28;20059;-75
2022/07/09 02:45:11;;;;;;;2.15;1.60;;;20.40;60.40;;;;;;5062956;28;20425;-74
2022/07/09 02:47:39;;;;;;;1.98;1.50;;;20.20;62.50;;;;;;5051791;28;20084;-74
2022/07/09 02:50:07;;;;;;;2.80;1.70;;;19.50;62.30;;;;;;5069125;28;20040;-74
2022/07/09 02:52:34;;;;;;;3.50;1.55;;;21.50;63.50;;;;;;5054580;28;20084;-73
2022/07/09 02:55:01;;;;;;;2.80;1.52;;;20.40;60.50;;;;;;5071035;28;20148;-75
2022/07/09 02:57:27;;;;;;;3.83;1.65;;;19.20;62.60;;;;;;5071273;28;20056;-74
2022/07/09 02:59:54;;;;;;;2.53;1.52;;;20.90;62.70;;;;;;5067157;28;20157;-74
2022/07/09 03:02:21;;;;;;;2.58;1.70;;;20.40;60.50;;;;;;5065759;28;20155;-75
2022/07/09 03:04:49;;;;;;;2.00;1.33;;;20.40;60.50;;;;;;5070546;28;20044;-74
2022/07/09 03:07:16;;;;;;;2.50;1.50;;;20.30;60.40;;;;;;5058277;28;20059;-74
2022/07/09 03:09:43;;;;;;;1.92;1.50;;;20.40;60.50;;;;;;5051509;28;20136;-74
2022/07/09 03:12:10;;;;;;;2.10;1.58;;;20.30;62.90;;;;;;5071822;28;20048;-75
2022/07/09 03:14:37;;;;;;;1.90;1.50;;;20.30;60.40;;;;;;5052491;28;20049;-74
2022/07/09 03:17:04;;;;;;;3.63;1.70;;;20.30;60.40;;;;;;5051503;28;20131;-74
2022/07/09 03:19:33;;;;;;;1.85;1.45;;;19.80;63.10;;;;;;5051998;28;20059;-76
2022/07/09 03:22:02;;;;;;;2.88;1.67;;;20.30;60.50;;;;;;5050943;28;20412;-74
2022/07/09 03:24:28;;;;;;;2.00;1.50;;;20.30;60.40;;;;;;5056713;28;20144;-74
2022/07/09 03:26:55;;;;;;;2.03;1.50;;;20.30;63.40;;;;;;5051963;28;20053;-74
2022/07/09 03:29:22;;;;;;;2.28;1.50;;;19.90;61.10;;;;;;5050137;28;20135;-74
2022/07/09 03:31:49;;;;;;;3.17;1.65;;;20.30;60.40;;;;;;5067809;28;20044;-74
2022/07/09 03:34:16;;;;;;;1.85;1.50;;;20.40;60.50;;;;;;5067963;28;20136;-74
2022/07/09 03:36:42;;;;;;;1.88;1.50;;;20.30;60.40;;;;;;5053867;28;20106;-74
2022/07/09 03:39:10;;;;;;;2.08;1.40;;;20.70;63.50;;;;;;5070348;28;20049;-74
2022/07/09 03:41:37;;;;;;;2.17;1.45;;;20.20;60.40;;;;;;5071473;28;20131;-74
2022/07/09 03:44:04;;;;;;;1.73;1.50;;;20.30;60.50;;;;;;5069509;28;20565;-74
2022/07/09 03:46:31;;;;;;;2.20;1.75;;;20.30;60.40;;;;;;5063607;28;20413;-74
2022/07/09 03:48:58;;;;;;;2.25;1.50;;;20.30;63.10;;;;;;5050438;28;20080;-74
2022/07/09 03:51:24;;;;;;;2.22;1.60;;;20.30;60.50;;;;;;5065046;28;20128;-75
2022/07/09 03:53:51;;;;;;;1.55;1.40;;;20.30;60.40;;;;;;5069957;28;20087;-75
2022/07/09 03:56:20;;;;;;;2.70;1.60;;;20.00;63.30;;;;;;5056253;28;20059;-75
2022/07/09 03:58:47;;;;;;;2.35;1.50;;;21.30;63.80;;;;;;5057824;28;20045;-75
2022/07/09 04:01:14;;;;;;;2.53;1.60;;;20.20;63.30;;;;;;5069858;28;20051;-76
2022/07/09 04:03:41;;;;;;;1.50;1.38;;;20.20;63.50;;;;;;5068726;28;20139;-75
2022/07/09 04:06:08;;;;;;;2.30;1.67;;;20.30;60.50;;;;;;5069338;28;20052;-75
2022/07/09 04:08:35;;;;;;;3.20;1.55;;;20.30;63.30;;;;;;5055356;28;20060;-75
2022/07/09 04:11:01;;;;;;;3.05;1.80;;;20.50;60.60;;;;;;5050902;28;20052;-73
2022/07/09 04:13:29;;;;;;;1.83;1.60;;;20.30;60.40;;;;;;5051492;28;20549;-74
2022/07/09 04:15:56;;;;;;;2.97;1.50;;;20.30;60.40;;;;;;5069129;28;20136;-73
2022/07/09 04:18:23;;;;;;;2.38;1.65;;;20.20;60.40;;;;;;5068705;28;20152;-74
2022/07/09 04:20:50;;;;;;;2.30;1.60;;;20.20;61.00;;;;;;5070771;28;20545;-76
2022/07/09 04:23:17;;;;;;;1.88;1.40;;;20.30;60.50;;;;;;5065631;28;20056;-75
2022/07/09 04:25:45;;;;;;;1.50;1.40;;;20.30;60.50;;;;;;5070824;28;20059;-78
2022/07/09 04:28:12;;;;;;;2.95;1.83;;;20.30;60.50;;;;;;5071080;28;20056;-76
2022/07/09 04:30:40;;;;;;;2.17;1.50;;;20.30;60.40;;;;;;5066327;28;20129;-76
2022/07/09 04:33:07;;;;;;;1.70;1.45;;;20.30;60.40;;;;;;5050091;28;20247;-76
2022/07/09 04:35:35;;;;;;;4.15;1.65;;;20.20;60.40;;;;;;5050713;28;20132;-75
2022/07/09 04:38:02;;;;;;;1.85;1.48;;;20.30;60.50;;;;;;5050165;28;20132;-75
2022/07/09 04:40:28;;;;;;;2.30;1.40;;;20.30;60.40;;;;;;5059113;28;20623;-76
2022/07/09 04:42:55;;;;;;;2.17;1.42;;;20.30;60.40;;;;;;5057549;28;20057;-75
2022/07/09 04:45:22;;;;;;;2.33;1.55;;;19.90;62.80;;;;;;5057723;28;20072;-74
2022/07/09 04:47:50;;;;;;;2.17;1.50;;;20.30;60.40;;;;;;5057865;28;20517;-74
2022/07/09 04:50:17;;;;;;;2.78;1.60;;;20.30;60.40;;;;;;5056427;28;20147;-74
2022/07/09 04:52:44;;;;;;;2.13;1.50;;;20.30;60.40;;;;;;5057493;28;20139;-74
2022/07/09 04:55:11;;;;;;;3.08;1.70;;;20.30;60.40;;;;;;5056744;28;20060;-74
2022/07/09 04:57:38;;;;;;;2.33;1.50;;;21.30;63.60;;;;;;5058600;28;20131;-75
2022/07/09 05:00:06;;;;;;;1.63;1.40;;;20.30;60.50;;;;;;5057366;28;20409;-76
2022/07/09 05:02:33;;;;;;;1.90;1.40;;;20.30;60.40;;;;;;5058573;28;20140;-75
2022/07/09 05:05:03;;;;;;;1.45;1.30;;;20.30;60.50;;;;;;5058670;28;20056;-75
2022/07/09 05:07:30;;;;;;;3.65;1.73;;;20.30;63.40;;;;;;5058033;28;20051;-75
2022/07/09 05:09:56;;;;;;;2.00;1.58;;;20.30;60.50;;;;;;5058176;28;20136;-76
2022/07/09 05:12:23;;;;;;;2.03;1.38;;;20.30;60.50;;;;;;5054148;28;20253;-75
2022/07/09 05:14:50;;;;;;;1.73;1.48;;;20.50;63.40;;;;;;5059824;28;20128;-76
2022/07/09 05:17:17;;;;;;;2.03;1.50;;;20.30;60.60;;;;;;5058708;28;20040;-75
2022/07/09 05:19:44;;;;;;;2.13;1.50;;;20.30;60.60;;;;;;5056306;28;20135;-76
2022/07/09 05:22:13;;;;;;;2.83;1.40;;;20.30;60.60;;;;;;5055511;28;20047;-76
2022/07/09 05:24:40;;;;;;;2.35;1.60;;;20.40;60.70;;;;;;5058223;28;20148;-75
2022/07/09 05:27:08;;;;;;;1.95;1.38;;;20.40;60.70;;;;;;5056672;28;20409;-75
2022/07/09 05:29:35;;;;;;;2.15;1.60;;;20.40;60.70;;;;;;5059211;28;20505;-75
2022/07/09 05:32:01;;;;;;;2.20;1.60;;;20.40;60.70;;;;;;5056914;28;20088;-75
2022/07/09 05:34:28;;;;;;;2.95;1.73;;;20.40;60.70;;;;;;5056316;28;20163;-75
2022/07/09 05:36:55;;;;;;;3.35;1.42;;;20.40;60.70;;;;;;5059857;28;20044;-75
2022/07/09 05:39:23;;;;;;;2.22;1.40;;;20.60;62.00;;;;;;5068205;28;20053;-76
2022/07/09 05:41:50;;;;;;;2.15;1.50;;;20.40;60.80;;;;;;5057555;28;20128;-75
2022/07/09 05:44:17;;;;;;;2.28;1.50;;;20.40;60.80;;;;;;5059633;28;20057;-74
2022/07/09 05:46:43;;;;;;;2.00;1.60;;;20.40;60.80;;;;;;5053782;28;20048;-75
2022/07/09 05:49:10;;;;;;;2.13;1.30;;;20.40;60.70;;;;;;5067670;28;20058;-75
2022/07/09 05:51:37;;;;;;;2.30;1.42;;;20.20;63.00;;;;;;5067381;28;20047;-75
2022/07/09 05:54:04;;;;;;;1.60;1.35;;;20.40;60.60;;;;;;5067200;28;20067;-75
2022/07/09 05:56:32;;;;;;;2.10;1.40;;;20.40;60.60;;;;;;5055842;28;20052;-75
2022/07/09 05:58:59;;;;;;;2.10;1.50;;;20.40;60.50;;;;;;5047843;28;20616;-75
2022/07/09 06:01:25;;;;;;;1.30;1.20;;;20.40;60.50;;;;;;5056389;28;20123;-75
2022/07/09 06:03:52;;;;;;;1.95;1.40;;;20.40;60.50;;;;;;5049309;28;20061;-75
2022/07/09 06:06:19;;;;;;;1.75;1.38;;;20.40;60.50;;;;;;5052912;28;20531;-75
2022/07/09 06:08:46;;;;;;;2.22;1.40;;;20.40;60.50;;;;;;5058627;28;20144;-76
2022/07/09 06:11:13;;;;;;;2.28;1.50;;;20.40;60.50;;;;;;5049996;28;20136;-74
2022/07/09 06:13:41;;;;;;;1.40;1.23;;;20.40;62.60;;;;;;5064357;28;20075;-74
2022/07/09 06:16:08;;;;;;;1.40;1.30;;;20.30;62.50;;;;;;5067216;28;20066;-74
2022/07/09 06:18:34;;;;;;;1.65;1.23;;;20.50;63.30;;;;;;5067465;28;20066;-74
2022/07/09 06:21:02;;;;;;;1.27;1.17;;;20.50;60.40;;;;;;5067473;28;20621;-74
2022/07/09 06:23:28;;;;;;;2.47;1.30;;;20.50;60.40;;;;;;5052438;28;20067;-75
2022/07/09 06:25:55;;;;;;;1.45;1.23;;;20.50;60.30;;;;;;5063820;28;20120;-75
2022/07/09 06:28:22;;;;;;;1.67;1.20;;;20.50;60.30;;;;;;5047657;28;20673;-75
2022/07/09 06:30:50;;;;;;;2.35;1.60;;;20.50;60.40;;;;;;5047314;28;20127;-75
2022/07/09 06:33:17;;;;;;;1.73;1.30;;;20.50;60.40;;;;;;5046926;28;20081;-75
2022/07/09 06:35:44;;;;;;;2.22;1.50;;;20.50;60.30;;;;;;5058333;28;20508;-75
2022/07/09 06:38:11;;;;;;;2.65;1.40;;;20.50;60.30;;;;;;5062384;28;20053;-75
2022/07/09 06:40:37;;;;;;;1.90;1.38;;;20.50;60.30;;;;;;5047258;28;20044;-75
2022/07/09 06:43:04;;;;;;;2.47;1.40;;;21.60;63.10;;;;;;5046856;28;20152;-76
2022/07/09 06:45:31;;;;;;;2.15;1.33;;;20.50;60.30;;;;;;5057742;28;20049;-74
2022/07/09 06:47:59;;;;;;;1.83;1.40;;;20.50;60.30;;;;;;5067362;28;20120;-76
2022/07/09 06:50:26;;;;;;;1.60;1.27;;;20.50;60.30;;;;;;5066400;28;20048;-75
2022/07/09 06:52:52;;;;;;;2.30;1.42;;;20.40;62.60;;;;;;5057477;28;20128;-75
2022/07/09 06:55:19;;;;;;;1.60;1.30;;;20.40;60.20;;;;;;5047153;28;20128;-75
2022/07/09 06:57:46;;;;;;;1.83;1.33;;;20.50;60.20;;;;;;5047197;28;20147;-75
2022/07/09 07:00:13;;;;;;;2.03;1.20;;;20.50;60.20;;;;;;5047273;28;20065;-75
2022/07/09 07:02:40;;;;;;;2.13;1.42;;;20.50;63.50;;;;;;5064895;28;20067;-75
2022/07/09 07:05:08;;;;;;;1.52;1.20;;;20.70;60.30;;;;;;5060209;28;20136;-75
2022/07/09 07:07:35;;;;;;;1.63;1.30;;;20.60;60.20;;;;;;5061345;28;20579;-76
2022/07/09 07:10:02;;;;;;;2.83;1.30;;;20.60;60.20;;;;;;5061670;28;20053;-75
2022/07/09 07:12:29;;;;;;;1.38;1.27;;;20.60;60.20;;;;;;5048070;28;20540;-75
2022/07/09 07:14:55;;;;;;;2.20;1.45;;;21.20;63.30;;;;;;5050468;28;20049;-75
2022/07/09 07:17:22;;;;;;;1.23;1.13;;;20.60;60.20;;;;;;5061257;28;20066;-75
2022/07/09 07:19:49;;;;;;;1.23;1.10;;;20.60;60.20;;;;;;5064469;28;20052;-75
2022/07/09 07:22:17;;;;;;;1.50;1.20;;;20.60;60.10;;;;;;5053844;28;20623;-75
2022/07/09 07:24:44;;;;;;;1.50;1.20;;;20.60;60.10;;;;;;5047033;28;20063;-75
2022/07/09 07:27:10;;;;;;;2.55;1.35;;;20.60;60.10;;;;;;5057249;28;20060;-75
2022/07/09 07:29:37;;;;;;;1.27;1.10;;;20.60;60.10;;;;;;5066722;28;20135;-75
2022/07/09 07:32:04;;;;;;;1.58;1.45;;;21.70;63.70;;;;;;5065932;28;20055;-75
2022/07/09 07:34:31;;;;;;;1.67;1.30;;;20.60;62.80;;;;;;5064251;28;20067;-75
2022/07/09 07:36:58;;;;;;;1.98;1.33;;;20.60;60.10;;;;;;5048608;28;20495;-75
2022/07/09 07:39:26;;;;;;;1.42;1.20;;;20.60;60.10;;;;;;5050535;28;20063;-75
2022/07/09 07:41:53;;;;;;;3.20;1.30;;;20.60;62.70;;;;;;5050467;28;20483;-75
2022/07/09 07:44:20;;;;;;;1.50;1.40;;;20.60;60.10;;;;;;5050261;28;20052;-75
2022/07/09 07:46:47;;;;;;;1.10;1.00;;;20.60;60.00;;;;;;5055872;28;20076;-75
2022/07/09 07:49:14;;;;;;;1.30;1.17;;;20.50;62.30;;;;;;5059927;28;20135;-75
2022/07/09 07:51:41;;;;;;;2.25;1.42;;;20.60;60.00;;;;;;5064014;28;20123;-75
2022/07/09 07:54:07;;;;;;;2.55;1.30;;;20.70;60.00;;;;;;5067125;28;20052;-75
2022/07/09 07:56:36;;;;;;;1.52;1.10;;;20.70;60.00;;;;;;5054447;28;20152;-75
2022/07/09 07:59:03;;;;;;;2.00;1.40;;;20.80;60.00;;;;;;5050316;28;20418;-75
2022/07/09 08:01:30;;;;;;;2.83;1.27;;;20.80;59.90;;;;;;5058289;28;20397;-74
2022/07/09 08:03:57;;;;;;;1.45;1.20;;;20.80;59.80;;;;;;5069120;28;20044;-75
2022/07/09 08:06:24;;;;;;;2.55;1.20;;;20.90;59.80;;;;;;5062245;28;20616;-75
2022/07/09 08:08:50;;;;;;;1.73;1.10;;;20.90;59.70;;;;;;5058003;28;20136;-74
2022/07/09 08:11:17;;;;;;;1.83;1.30;;;20.90;62.40;;;;;;5057024;28;20051;-74
2022/07/09 08:13:45;;;;;;;1.50;1.30;;;21.00;59.60;;;;;;5062010;28;20079;-75
2022/07/09 08:16:12;;;;;;;2.40;1.10;;;21.00;59.60;;;;;;5059767;28;20128;-74
2022/07/09 08:18:38;;;;;;;2.65;1.40;;;21.10;59.60;;;;;;5059553;28;20405;-75
2022/07/09 08:21:05;;;;;;;2.83;1.35;;;21.10;62.60;;;;;;5060245;28;20079;-75
2022/07/09 08:23:50;;;;;;;1.67;1.20;;;21.30;62.40;;;;;;5062011;28;20071;-75
2022/07/09 08:26:18;;;;;;;2.22;1.33;;;21.10;59.30;;;;;;5060117;28;20056;-75
2022/07/09 08:28:46;;;;;;;2.88;1.40;;;21.10;59.30;;;;;;5069130;28;20054;-75
2022/07/09 08:31:12;;;;;;;2.90;1.33;;;21.20;59.40;;;;;;5068507;28;20135;-75
2022/07/09 08:33:39;;;;;;;1.65;1.20;;;21.30;59.30;;;;;;5067713;28;20062;-75
2022/07/09 08:36:06;;;;;;;3.20;1.40;;;21.40;59.30;;;;;;5069256;28;20147;-75
2022/07/09 08:38:33;;;;;;;2.47;1.30;;;21.40;59.30;;;;;;5069360;28;20076;-75
2022/07/09 08:41:00;;;;;;;3.25;1.38;;;21.50;61.60;;;;;;5069586;28;20142;-75
2022/07/09 08:43:27;;;;;;;3.15;1.50;;;21.50;59.20;;;;;;5064328;28;20540;-74
2022/07/09 08:45:56;;;;;;;2.28;1.20;;;21.50;59.10;;;;;;5061591;28;20140;-74
2022/07/09 08:48:22;;;;;;;1.70;1.30;;;21.60;59.00;;;;;;5069039;28;20147;-77
2022/07/09 08:50:49;;;;;;;4.35;1.50;;;21.60;59.00;;;;;;5049953;28;20072;-76
2022/07/09 08:53:17;;;;;;;3.30;1.40;;;21.60;59.00;;;;;;5048926;28;20657;-74
2022/07/09 08:55:44;;;;;;;4.35;1.50;;;21.60;59.00;;;;;;5049512;28;20061;-74
2022/07/09 08:58:11;;;;;;;2.30;1.52;;;21.60;59.00;;;;;;5054171;28;20049;-75
2022/07/09 09:00:37;;;;;;;2.90;1.45;;;21.60;58.90;;;;;;5058428;28;20442;-75
2022/07/09 09:03:10;;;;;;;4.28;1.60;;;21.60;59.00;;;;;;5060736;28;20058;-75
2022/07/09 09:05:36;;;;;;;2.50;1.52;;;22.70;62.50;;;;;;5056872;28;20056;-75
2022/07/09 09:08:17;;;;;;;2.35;1.63;;;21.60;58.90;;;;;;5058395;28;20059;-75
2022/07/09 09:10:46;;;;;;;5.43;1.50;;;21.70;59.00;;;;;;5058592;28;20135;-75
2022/07/09 09:13:15;;;;;;;2.47;1.40;;;21.70;61.60;;;;;;5059159;28;20409;-75
2022/07/09 09:15:41;;;;;;;3.03;1.52;;;21.80;61.90;;;;;;5057560;28;20045;-75
2022/07/09 09:18:10;;;;;;;2.28;1.60;;;21.80;59.00;;;;;;5057800;28;20412;-75
2022/07/09 09:20:36;;;;;;;2.72;1.40;;;21.90;59.00;;;;;;5059291;28;20056;-75
2022/07/09 09:23:09;;;;;;;5.32;2.00;;;22.00;59.10;;;;;;5056039;28;20059;-75
2022/07/09 09:25:36;;;;;;;3.10;1.80;;;21.80;59.00;;;;;;5057975;28;20136;-75
2022/07/09 09:28:03;;;;;;;4.22;1.67;;;21.80;61.60;;;;;;5057993;28;20087;-75
2022/07/09 09:30:31;;;;;;;2.45;1.70;;;21.80;62.00;;;;;;5059802;28;20132;-75
2022/07/09 09:32:58;;;;;;;2.88;1.73;;;21.70;59.20;;;;;;5054053;28;20065;-75
2022/07/09 09:35:26;;;;;;;2.97;1.60;;;21.80;59.40;;;;;;5055719;28;20084;-75
2022/07/09 09:37:54;;;;;;;4.63;1.70;;;21.80;62.00;;;;;;5053821;28;20040;-75
2022/07/09 09:40:20;;;;;;;5.07;1.70;;;21.80;59.40;;;;;;5048863;28;20041;-75
2022/07/09 09:42:47;;;;;;;5.18;2.08;;;22.40;62.60;;;;;;5064310;28;20148;-75
2022/07/09 09:45:14;;;;;;;2.67;1.75;;;21.80;59.60;;;;;;5068627;28;20473;-75
2022/07/09 09:47:41;;;;;;;4.32;1.60;;;21.50;61.80;;;;;;5068975;28;20080;-75
2022/07/09 09:50:13;;;;;;;4.22;1.80;;;21.90;59.60;;;;;;5065957;28;20706;-75
2022/07/09 09:52:41;;;;;;;3.95;2.05;;;21.90;59.60;;;;;;5055820;28;20429;-75
2022/07/09 09:55:08;;;;;;;5.05;1.60;;;21.80;62.50;;;;;;5050361;28;20524;-75
2022/07/09 09:57:35;;;;;;;3.60;1.70;;;20.70;61.60;;;;;;5049824;28;20055;-75
2022/07/09 10:00:02;;;;;;;5.15;2.10;;;22.00;62.00;;;;;;5067016;28;20489;-75
2022/07/09 10:02:28;;;;;;;7.75;1.98;;;21.90;60.00;;;;;;5051585;28;20044;-74
2022/07/09 10:04:55;;;;;;;2.75;1.45;;;20.80;61.70;;;;;;5048804;28;20116;-75
2022/07/09 10:07:22;;;;;;;12.73;1.83;;;21.90;60.10;;;;;;5048854;28;20071;-75
2022/07/09 10:09:59;;;;;;;4.85;1.73;;;21.90;60.10;;;;;;5051790;28;20135;-75
2022/07/09 10:12:27;;;;;;;9.65;2.30;;;22.00;62.30;;;;;;5046131;28;20051;-74
2022/07/09 10:14:54;;;;;;;3.70;1.58;;;22.00;60.40;;;;;;5059633;28;20056;-74
2022/07/09 10:17:21;;;;;;;7.13;1.70;;;22.00;62.70;;;;;;5057397;28;20080;-75
2022/07/09 10:19:55;;;;;;;4.80;1.85;;;22.10;60.10;;;;;;5059664;28;20408;-74
2022/07/09 10:22:22;;;;;;;6.20;1.80;;;22.10;60.00;;;;;;5064908;28;20060;-74
2022/07/09 10:24:51;;;;;;;5.05;2.03;;;22.10;60.00;;;;;;5054287;28;20390;-74
2022/07/09 10:27:19;;;;;;;5.30;2.00;;;22.10;60.50;;;;;;5050202;28;20612;-76
2022/07/09 10:29:56;;;;;;;6.25;1.58;;;22.20;62.10;;;;;;5047495;28;20155;-74
2022/07/09 10:32:27;;;;;;;3.10;1.60;;;20.50;58.90;;;;;;5055388;28;20086;-74
2022/07/09 10:34:58;;;;;;;4.40;1.70;;;22.20;59.70;;;;;;5058739;28;20053;-74
2022/07/09 10:37:35;;;;;;;9.18;1.90;;;22.10;59.60;;;;;;5058311;28;20052;-74
2022/07/09 10:40:15;;;;;;;4.05;1.70;;;22.20;59.70;;;;;;5055723;28;20131;-74
2022/07/09 10:42:43;;;;;;;5.30;1.65;;;22.20;59.70;;;;;;5064754;28;20120;-75
2022/07/09 10:45:21;;;;;;;3.70;1.65;;;22.20;59.50;;;;;;5068365;28;20044;-74
2022/07/09 10:47:52;;;;;;;4.05;1.67;;;22.30;59.50;;;;;;5067202;28;20056;-74
2022/07/09 10:50:18;;;;;;;4.00;1.67;;;22.30;59.30;;;;;;5060883;28;20047;-74
2022/07/09 10:52:46;;;;;;;2.63;1.50;;;22.30;59.30;;;;;;5052407;28;20041;-74
2022/07/09 10:55:12;;;;;;;3.63;1.50;;;22.30;59.20;;;;;;5057091;28;20040;-74
2022/07/09 10:57:39;;;;;;;5.53;1.70;;;22.40;59.20;;;;;;5057920;28;20057;-75
2022/07/09 11:00:10;;;;;;;3.08;1.63;;;22.40;59.20;;;;;;5057867;28;20054;-75
2022/07/09 11:02:36;;;;;;;7.28;1.95;;;22.40;59.10;;;;;;5055121;28;20041;-74
2022/07/09 11:05:04;;;;;;;2.70;1.50;;;22.40;59.60;;;;;;5058404;28;20135;-75
2022/07/09 11:07:32;;;;;;;2.67;1.50;;;22.40;59.00;;;;;;5057118;28;20071;-74
2022/07/09 11:09:59;;;;;;;3.30;1.40;;;22.50;59.00;;;;;;5058620;28;20053;-75
2022/07/09 11:12:25;;;;;;;2.55;1.52;;;22.50;59.00;;;;;;5060622;28;20115;-75
2022/07/09 11:14:52;;;;;;;4.80;1.50;;;22.50;59.10;;;;;;5061396;28;20128;-74
2022/07/09 11:17:21;;;;;;;2.25;1.50;;;22.50;59.10;;;;;;5061646;28;20140;-74
2022/07/09 11:19:48;;;;;;;4.97;1.60;;;22.50;59.10;;;;;;5065260;28;20052;-73
2022/07/09 11:22:15;;;;;;;2.38;1.40;;;21.10;60.80;;;;;;5065840;28;20102;-74
2022/07/09 11:24:42;;;;;;;4.70;1.50;;;22.50;59.20;;;;;;5061670;28;20092;-74
2022/07/09 11:27:09;;;;;;;5.10;1.60;;;22.50;59.10;;;;;;5051541;28;20617;-74
2022/07/09 11:29:36;;;;;;;2.08;1.45;;;22.00;60.20;;;;;;5053129;28;20067;-74
2022/07/09 11:32:04;;;;;;;3.70;1.80;;;22.50;59.10;;;;;;5068771;28;20052;-74
2022/07/09 11:34:32;;;;;;;3.08;1.70;;;22.50;59.00;;;;;;5053207;28;20111;-74
2022/07/09 11:36:59;;;;;;;5.88;1.70;;;22.60;61.20;;;;;;5050820;28;20063;-74
2022/07/09 11:39:26;;;;;;;4.53;1.63;;;22.30;59.60;;;;;;5051735;28;20080;-74
2022/07/09 11:41:53;;;;;;;5.55;1.70;;;22.50;61.50;;;;;;5051631;28;20096;-75
2022/07/09 11:44:21;;;;;;;2.42;1.35;;;22.50;59.10;;;;;;5050323;28;20045;-74
2022/07/09 11:47:02;;;;;;;2.10;1.45;;;22.50;59.20;;;;;;5050888;28;20087;-74
2022/07/09 11:49:37;;;;;;;2.88;1.60;;;22.50;59.10;;;;;;5050285;28;20721;-74
2022/07/09 11:52:05;;;;;;;3.75;1.63;;;22.50;59.10;;;;;;5065769;28;20565;-75
2022/07/09 11:54:32;;;;;;;3.85;1.67;;;22.50;59.20;;;;;;5070137;28;20528;-74
2022/07/09 11:56:58;;;;;;;4.00;1.52;;;22.50;59.20;;;;;;5062619;28;20467;-74
2022/07/09 11:59:31;;;;;;;3.92;1.50;;;22.60;61.70;;;;;;5060143;28;20147;-74
2022/07/09 12:01:59;;;;;;;4.03;1.45;;;22.10;61.50;;;;;;5057598;28;20053;-76
2022/07/09 12:04:28;;;;;;;3.72;1.70;;;22.50;59.30;;;;;;5059955;28;20064;-74
2022/07/09 12:06:57;;;;;;;3.08;1.60;;;22.50;59.30;;;;;;5057292;28;20615;-74
2022/07/09 12:09:30;;;;;;;5.15;1.80;;;23.10;59.90;;;;;;5060594;28;20059;-74
2022/07/09 12:11:57;;;;;;;5.38;1.88;;;22.50;61.80;;;;;;5057445;28;20045;-75
2022/07/09 12:14:24;;;;;;;2.85;1.60;;;22.50;59.30;;;;;;5061390;28;20654;-75
2022/07/09 12:16:51;;;;;;;2.38;1.73;;;22.50;59.30;;;;;;5050472;28;20461;-74
2022/07/09 12:19:17;;;;;;;3.33;1.65;;;22.70;59.50;;;;;;5055026;28;20403;-74
2022/07/09 12:21:44;;;;;;;3.20;1.60;;;22.50;59.30;;;;;;5048825;28;20057;-74
2022/07/09 12:24:12;;;;;;;4.30;1.70;;;22.50;59.30;;;;;;5058500;28;20131;-74
2022/07/09 12:26:39;;;;;;;3.70;1.58;;;22.50;59.30;;;;;;5049262;28;20057;-74
2022/07/09 12:29:06;;;;;;;3.20;1.75;;;22.50;59.30;;;;;;5055362;28;20051;-74
2022/07/09 12:31:36;;;;;;;4.63;1.70;;;22.50;59.30;;;;;;5058325;28;20131;-75
2022/07/09 12:34:03;;;;;;;5.15;1.80;;;22.50;59.30;;;;;;5059852;28;20103;-74
2022/07/09 12:36:30;;;;;;;5.45;1.50;;;22.50;59.30;;;;;;5058328;28;20127;-74
2022/07/09 12:38:56;;;;;;;2.75;1.58;;;22.50;59.20;;;;;;5059897;28;20157;-74
2022/07/09 12:41:25;;;;;;;4.88;1.73;;;22.50;59.20;;;;;;5059157;28;20052;-74
2022/07/09 12:43:52;;;;;;;3.30;1.50;;;22.50;59.20;;;;;;5057415;28;20072;-74
2022/07/09 12:46:18;;;;;;;4.05;1.92;;;22.50;59.10;;;;;;5059852;28;20493;-74
2022/07/09 12:48:45;;;;;;;4.18;1.48;;;22.50;59.10;;;;;;5057738;28;20044;-76